Time;durP1;ratioP1;P1;durP2;ratioP2;P2;SDS_P1;SDS_P2;PMS_P1;PMS_P2;Temp;Humidity;BMP_temperature;BMP_pressure;BME280_temperature;BME280_humidity;BME280_pressure;Samples;Min_cycle;Max_cycle;Signal;HPM_P1;HPM_P2
2021/01/12 00:01:43;;;;;;;8.82;4.90;;;9.20;99.90;;;;;;4708473;30;20052;-83
2021/01/12 00:04:09;;;;;;;6.93;3.97;;;9.20;99.90;;;;;;4722161;30;20029;-82
2021/01/12 00:06:35;;;;;;;9.30;5.10;;;9.10;99.90;;;;;;4722600;30;20048;-82
2021/01/12 00:09:02;;;;;;;9.43;4.55;;;9.00;99.90;;;;;;4724154;30;20032;-82
2021/01/12 00:11:28;;;;;;;6.70;4.05;;;8.90;99.90;;;;;;4722480;30;20607;-83
2021/01/12 00:13:54;;;;;;;12.00;5.43;;;8.90;99.90;;;;;;4739194;30;20098;-81
2021/01/12 00:16:21;;;;;;;8.98;4.15;;;8.90;99.90;;;;;;4739353;30;20067;-81
2021/01/12 00:18:48;;;;;;;12.10;5.20;;;8.80;99.90;;;;;;4733520;30;20087;-81
2021/01/12 00:21:15;;;;;;;9.90;5.53;;;8.80;99.90;;;;;;4730181;30;20045;-81
2021/01/12 00:23:41;;;;;;;13.75;6.03;;;8.80;99.90;;;;;;4733498;30;20062;-82
2021/01/12 00:26:08;;;;;;;10.80;5.32;;;8.90;99.90;;;;;;4723940;30;20041;-81
2021/01/12 00:28:35;;;;;;;13.52;6.50;;;8.80;99.90;;;;;;4750184;30;20046;-81
2021/01/12 00:31:06;;;;;;;10.48;5.97;;;8.80;99.90;;;;;;4736295;30;20067;-81
2021/01/12 00:33:32;;;;;;;18.08;6.22;;;8.80;99.90;;;;;;4751960;30;20265;-81
2021/01/12 00:36:08;;;;;;;13.18;6.72;;;8.80;99.90;;;;;;4736143;30;20040;-81
2021/01/12 00:38:35;;;;;;;12.50;5.75;;;8.80;99.90;;;;;;4717328;30;20124;-82
2021/01/12 00:41:07;;;;;;;16.02;6.18;;;8.80;99.90;;;;;;4733863;30;20033;-81
2021/01/12 00:43:33;;;;;;;13.20;6.15;;;8.80;99.90;;;;;;4734093;30;20414;-81
2021/01/12 00:45:59;;;;;;;10.95;5.95;;;8.80;99.90;;;;;;4732411;30;20029;-82
2021/01/12 00:48:25;;;;;;;11.48;6.28;;;8.80;99.90;;;;;;4732307;30;20083;-81
2021/01/12 00:50:51;;;;;;;10.60;5.80;;;8.80;99.90;;;;;;4733883;30;20036;-81
2021/01/12 00:53:17;;;;;;;10.80;6.78;;;8.80;99.90;;;;;;4734043;30;20037;-80
2021/01/12 00:55:43;;;;;;;11.93;5.78;;;8.70;99.90;;;;;;4733317;30;20044;-81
2021/01/12 00:58:09;;;;;;;13.00;6.25;;;8.70;99.90;;;;;;4736120;30;20055;-81
2021/01/12 01:00:35;;;;;;;12.45;5.90;;;8.70;99.90;;;;;;4733920;30;20883;-81
2021/01/12 01:03:01;;;;;;;15.70;7.20;;;8.70;99.90;;;;;;4733846;30;20067;-81
2021/01/12 01:05:27;;;;;;;14.95;7.13;;;8.70;99.90;;;;;;4733693;30;20433;-81
2021/01/12 01:07:53;;;;;;;16.92;7.20;;;8.70;99.90;;;;;;4725691;30;20028;-80
2021/01/12 01:10:19;;;;;;;20.33;6.53;;;8.70;99.90;;;;;;4751330;30;20036;-81
2021/01/12 01:12:46;;;;;;;11.48;5.95;;;8.70;99.90;;;;;;4750366;30;20524;-81
2021/01/12 01:15:12;;;;;;;19.08;7.10;;;8.70;99.90;;;;;;4751154;30;20032;-81
2021/01/12 01:17:38;;;;;;;14.13;6.82;;;8.70;99.90;;;;;;4741042;30;20041;-80
2021/01/12 01:20:05;;;;;;;14.05;6.80;;;8.60;99.90;;;;;;4750254;30;20379;-80
2021/01/12 01:22:31;;;;;;;18.50;6.65;;;8.60;99.90;;;;;;4750014;30;20513;-81
2021/01/12 01:24:57;;;;;;;13.38;7.00;;;8.60;99.90;;;;;;4741424;30;20525;-80
2021/01/12 01:27:23;;;;;;;13.27;5.97;;;8.60;99.90;;;;;;4732616;30;20060;-80
2021/01/12 01:29:49;;;;;;;11.93;5.97;;;8.60;99.90;;;;;;4733445;30;20500;-81
2021/01/12 01:32:15;;;;;;;16.30;6.82;;;8.60;99.90;;;;;;4733647;30;20048;-81
2021/01/12 01:34:41;;;;;;;11.27;6.57;;;8.60;99.90;;;;;;4732564;30;20036;-82
2021/01/12 01:37:07;;;;;;;16.00;7.18;;;8.60;99.90;;;;;;4732709;30;20041;-81
2021/01/12 01:39:33;;;;;;;10.25;5.72;;;8.60;99.90;;;;;;4740469;30;20470;-81
2021/01/12 01:42:01;;;;;;;8.95;5.85;;;8.60;99.90;;;;;;4750497;30;20202;-82
2021/01/12 01:44:27;;;;;;;15.20;6.70;;;8.60;99.90;;;;;;4750759;30;20039;-82
2021/01/12 01:46:55;;;;;;;13.63;6.65;;;8.50;99.90;;;;;;4750685;30;20047;-82
2021/01/12 01:49:21;;;;;;;19.90;7.40;;;8.60;99.90;;;;;;4738645;30;20367;-81
2021/01/12 01:51:47;;;;;;;14.43;5.90;;;8.60;99.90;;;;;;4749431;30;20047;-81
2021/01/12 01:54:14;;;;;;;10.15;5.65;;;8.60;99.90;;;;;;4750537;30;20028;-81
2021/01/12 01:56:40;;;;;;;11.57;5.60;;;8.60;99.90;;;;;;4750558;30;20177;-81
2021/01/12 01:59:06;;;;;;;7.45;4.82;;;8.60;99.90;;;;;;4739944;30;20122;-82
2021/01/12 02:01:35;;;;;;;13.65;5.72;;;8.60;99.90;;;;;;4726353;30;20099;-80
2021/01/12 02:04:19;;;;;;;13.15;5.72;;;8.60;99.90;;;;;;4715369;30;20476;-81
2021/01/12 02:06:48;;;;;;;15.15;5.85;;;8.60;99.90;;;;;;4714260;30;20044;-82
2021/01/12 02:09:22;;;;;;;10.40;5.20;;;8.60;99.90;;;;;;4715802;30;20467;-81
2021/01/12 02:11:55;;;;;;;12.77;6.38;;;8.60;99.90;;;;;;4746445;30;20040;-81
2021/01/12 02:14:23;;;;;;;15.77;6.65;;;8.60;99.90;;;;;;4750387;30;20047;-82
2021/01/12 02:16:52;;;;;;;12.52;5.95;;;8.60;99.90;;;;;;4750376;30;20505;-81
2021/01/12 02:19:21;;;;;;;12.07;5.30;;;8.60;99.90;;;;;;4742168;30;20560;-81
2021/01/12 02:21:53;;;;;;;9.02;5.43;;;8.60;99.90;;;;;;4734360;30;20123;-81
2021/01/12 02:24:20;;;;;;;11.07;5.30;;;8.50;99.90;;;;;;4732690;30;20085;-81
2021/01/12 02:26:46;;;;;;;13.10;5.80;;;8.50;99.90;;;;;;4732393;30;20029;-80
2021/01/12 02:29:12;;;;;;;15.30;5.78;;;8.50;99.90;;;;;;4732580;30;20552;-81
2021/01/12 02:31:39;;;;;;;14.90;6.57;;;8.60;99.90;;;;;;4740294;30;20530;-80
2021/01/12 02:34:11;;;;;;;11.80;7.20;;;8.60;99.90;;;;;;4732458;30;20089;-82
2021/01/12 02:36:38;;;;;;;13.27;6.43;;;8.60;99.90;;;;;;4732348;30;20041;-82
2021/01/12 02:39:04;;;;;;;18.52;6.68;;;8.70;99.90;;;;;;4716891;30;20119;-81
2021/01/12 02:41:35;;;;;;;11.45;5.78;;;8.70;99.90;;;;;;4724109;30;20045;-82
2021/01/12 02:44:02;;;;;;;14.80;5.68;;;8.70;99.90;;;;;;4732389;30;20037;-82
2021/01/12 02:46:29;;;;;;;9.25;4.82;;;8.70;99.90;;;;;;4731473;30;20571;-80
2021/01/12 02:48:55;;;;;;;11.30;5.22;;;8.70;99.90;;;;;;4732167;30;20031;-81
2021/01/12 02:51:21;;;;;;;12.95;5.07;;;8.70;99.90;;;;;;4722016;30;20131;-83
2021/01/12 02:53:47;;;;;;;9.55;5.72;;;8.70;99.90;;;;;;4733435;30;20566;-82
2021/01/12 02:56:13;;;;;;;13.43;6.03;;;8.70;99.90;;;;;;4718902;30;20029;-82
2021/01/12 02:58:39;;;;;;;11.20;5.15;;;8.70;99.90;;;;;;4714652;30;20065;-83
2021/01/12 03:01:05;;;;;;;10.93;5.82;;;8.70;99.90;;;;;;4713362;30;20040;-81
2021/01/12 03:03:31;;;;;;;10.10;5.45;;;8.70;99.90;;;;;;4744830;30;20040;-81
2021/01/12 03:05:57;;;;;;;10.35;5.25;;;8.70;99.90;;;;;;4749745;30;20543;-82
2021/01/12 03:08:23;;;;;;;13.85;5.55;;;8.70;99.90;;;;;;4739699;30;20037;-79
2021/01/12 03:10:49;;;;;;;9.15;5.45;;;8.70;99.90;;;;;;4728922;30;20062;-82
2021/01/12 03:13:15;;;;;;;12.73;5.78;;;8.70;99.90;;;;;;4731929;30;20029;-78
2021/01/12 03:15:41;;;;;;;11.50;5.68;;;8.70;99.90;;;;;;4732122;30;20033;-79
2021/01/12 03:18:08;;;;;;;12.50;5.47;;;8.70;99.90;;;;;;4730411;30;20067;-82
2021/01/12 03:20:34;;;;;;;8.65;4.82;;;8.70;99.90;;;;;;4731821;30;20032;-82
2021/01/12 03:23:01;;;;;;;11.30;5.50;;;8.70;99.90;;;;;;4731802;30;20120;-79
2021/01/12 03:25:27;;;;;;;11.15;5.45;;;8.70;99.90;;;;;;4731928;30;20033;-81
2021/01/12 03:27:53;;;;;;;10.55;4.82;;;8.70;99.90;;;;;;4729918;30;20044;-80
2021/01/12 03:30:20;;;;;;;10.30;5.07;;;8.60;99.90;;;;;;4730500;30;20140;-82
2021/01/12 03:32:46;;;;;;;11.07;5.57;;;8.60;99.90;;;;;;4732270;30;20041;-80
2021/01/12 03:35:12;;;;;;;12.35;5.28;;;8.60;99.90;;;;;;4730894;30;20075;-82
2021/01/12 03:37:39;;;;;;;8.77;4.97;;;8.60;99.90;;;;;;4731550;30;20494;-81
2021/01/12 03:40:06;;;;;;;8.73;4.63;;;8.60;99.90;;;;;;4731724;30;20517;-82
2021/01/12 03:42:32;;;;;;;14.48;6.20;;;8.60;99.90;;;;;;4731588;30;20496;-82
2021/01/12 03:44:58;;;;;;;13.50;5.53;;;8.60;99.90;;;;;;4734016;30;20046;-81
2021/01/12 03:47:25;;;;;;;11.93;5.72;;;8.60;99.90;;;;;;4729831;30;20036;-78
2021/01/12 03:49:51;;;;;;;9.07;4.93;;;8.60;99.90;;;;;;4716179;30;20040;-81
2021/01/12 03:52:18;;;;;;;13.95;5.18;;;8.60;99.90;;;;;;4714817;30;20072;-81
2021/01/12 03:54:44;;;;;;;12.00;4.53;;;8.60;99.90;;;;;;4734108;30;20063;-82
2021/01/12 03:57:11;;;;;;;10.88;4.57;;;8.60;99.90;;;;;;4735305;30;20536;-82
2021/01/12 03:59:37;;;;;;;14.50;5.78;;;8.60;99.90;;;;;;4739063;30;20029;-82
2021/01/12 04:02:03;;;;;;;6.68;4.55;;;8.60;99.90;;;;;;4734802;30;20050;-81
2021/01/12 04:04:29;;;;;;;10.98;4.20;;;8.60;99.90;;;;;;4742208;30;20036;-81
2021/01/12 04:06:55;;;;;;;8.15;4.32;;;8.60;99.90;;;;;;4752000;30;20509;-83
2021/01/12 04:09:23;;;;;;;8.55;5.05;;;8.60;99.90;;;;;;4734494;30;20033;-82
2021/01/12 04:11:48;;;;;;;8.48;4.40;;;8.60;99.90;;;;;;4734925;30;20093;-82
2021/01/12 04:14:15;;;;;;;10.80;4.85;;;8.60;99.90;;;;;;4735091;30;20086;-78
2021/01/12 04:16:43;;;;;;;9.50;4.65;;;8.60;99.90;;;;;;4752297;30;20040;-82
2021/01/12 04:19:11;;;;;;;9.23;4.75;;;8.60;99.90;;;;;;4747249;30;20032;-81
2021/01/12 04:21:37;;;;;;;8.85;4.97;;;8.60;99.90;;;;;;4730430;30;20342;-82
2021/01/12 04:24:04;;;;;;;8.77;5.10;;;8.60;99.90;;;;;;4733493;30;20060;-82
2021/01/12 04:26:30;;;;;;;7.53;5.00;;;8.60;99.90;;;;;;4732328;30;20041;-81
2021/01/12 04:28:56;;;;;;;7.80;4.47;;;8.60;99.90;;;;;;4734555;30;20129;-82
2021/01/12 04:31:25;;;;;;;9.45;4.43;;;8.60;99.90;;;;;;4733387;30;20526;-81
2021/01/12 04:33:52;;;;;;;9.50;4.55;;;8.50;99.90;;;;;;4734412;30;20567;-80
2021/01/12 04:36:18;;;;;;;8.88;4.93;;;8.50;99.90;;;;;;4734731;30;20639;-82
2021/01/12 04:38:44;;;;;;;10.48;4.60;;;8.50;99.90;;;;;;4734313;30;20032;-78
2021/01/12 04:41:10;;;;;;;7.80;4.45;;;8.40;99.90;;;;;;4720172;30;20494;-82
2021/01/12 04:43:36;;;;;;;7.80;4.43;;;8.40;99.90;;;;;;4715642;30;20084;-82
2021/01/12 04:46:02;;;;;;;10.98;4.30;;;8.40;99.90;;;;;;4724750;30;20064;-81
2021/01/12 04:48:28;;;;;;;8.82;4.13;;;8.30;99.90;;;;;;4734464;30;20175;-81
2021/01/12 04:51:08;;;;;;;8.13;4.20;;;8.30;99.90;;;;;;4725407;30;20237;-82
2021/01/12 04:53:48;;;;;;;7.97;4.20;;;8.30;99.90;;;;;;4716742;30;20040;-80
2021/01/12 04:56:19;;;;;;;10.98;5.28;;;8.30;99.90;;;;;;4728812;30;20041;-78
2021/01/12 04:58:47;;;;;;;15.25;4.75;;;8.30;99.90;;;;;;4734123;30;20517;-81
2021/01/12 05:01:17;;;;;;;9.43;5.03;;;8.30;99.90;;;;;;4724613;30;20041;-81
2021/01/12 05:03:46;;;;;;;9.00;5.47;;;8.20;99.90;;;;;;4716521;30;20041;-81
2021/01/12 05:06:14;;;;;;;11.75;4.93;;;8.20;99.90;;;;;;4723274;30;20062;-83
2021/01/12 05:08:44;;;;;;;12.27;4.88;;;8.20;99.90;;;;;;4733461;30;20040;-82
2021/01/12 05:11:12;;;;;;;10.40;4.50;;;8.20;99.90;;;;;;4717847;30;20098;-80
2021/01/12 05:13:44;;;;;;;11.18;5.68;;;8.20;99.90;;;;;;4716322;30;20530;-82
2021/01/12 05:16:12;;;;;;;10.10;5.10;;;8.10;99.90;;;;;;4719340;30;20024;-82
2021/01/12 05:18:40;;;;;;;9.65;4.85;;;8.10;99.90;;;;;;4733651;30;20119;-82
2021/01/12 05:21:09;;;;;;;10.40;5.20;;;8.10;99.90;;;;;;4731599;30;20141;-81
2021/01/12 05:24:05;;;;;;;9.23;4.57;;;8.10;99.90;;;;;;4716583;30;20037;-82
2021/01/12 05:26:33;;;;;;;15.95;6.15;;;8.00;99.90;;;;;;4724868;30;20040;-81
2021/01/12 05:29:01;;;;;;;12.98;4.40;;;8.00;99.90;;;;;;4724128;30;20037;-81
2021/01/12 05:31:28;;;;;;;10.15;5.75;;;7.90;99.90;;;;;;4725464;30;20151;-79
2021/01/12 05:33:56;;;;;;;7.55;4.57;;;7.90;99.90;;;;;;4723922;30;20483;-79
2021/01/12 05:36:22;;;;;;;14.65;5.15;;;7.80;99.90;;;;;;4722016;30;20038;-81
2021/01/12 05:38:48;;;;;;;11.70;5.40;;;7.80;99.90;;;;;;4724876;30;20032;-82
2021/01/12 05:41:15;;;;;;;16.75;5.55;;;7.80;99.90;;;;;;4706091;30;20471;-82
2021/01/12 05:43:46;;;;;;;13.65;5.75;;;7.80;99.90;;;;;;4721201;30;20482;-82
2021/01/12 05:46:15;;;;;;;13.40;5.25;;;7.70;99.90;;;;;;4715115;30;20041;-82
2021/01/12 05:48:43;;;;;;;9.63;5.28;;;7.70;99.90;;;;;;4719309;30;20033;-81
2021/01/12 05:51:13;;;;;;;10.27;5.43;;;7.70;99.90;;;;;;4717696;30;20060;-79
2021/01/12 05:53:46;;;;;;;7.72;4.40;;;7.70;99.90;;;;;;4715107;30;20428;-81
2021/01/12 05:56:23;;;;;;;11.13;5.38;;;7.70;99.90;;;;;;4718927;30;20442;-82
2021/01/12 05:58:54;;;;;;;11.60;4.95;;;7.60;99.90;;;;;;4723016;30;20130;-82
2021/01/12 06:01:44;;;;;;;9.13;4.68;;;7.60;99.90;;;;;;4720876;30;20136;-81
2021/01/12 06:04:12;;;;;;;10.38;4.53;;;7.60;99.90;;;;;;4739914;30;20048;-80
2021/01/12 06:06:41;;;;;;;8.30;4.45;;;7.60;99.90;;;;;;4721398;30;20407;-82
2021/01/12 06:09:08;;;;;;;11.77;5.32;;;7.60;99.90;;;;;;4727454;30;20115;-79
2021/01/12 06:11:36;;;;;;;10.30;4.40;;;7.60;99.90;;;;;;4723909;30;20512;-82
2021/01/12 06:14:15;;;;;;;12.45;5.68;;;7.60;99.90;;;;;;4724578;30;20387;-82
2021/01/12 06:16:46;;;;;;;8.75;4.68;;;7.60;99.90;;;;;;4723401;30;20059;-82
2021/01/12 06:19:17;;;;;;;9.60;5.40;;;7.60;99.90;;;;;;4719204;30;20041;-81
2021/01/12 06:21:44;;;;;;;11.80;5.32;;;7.60;99.90;;;;;;4742209;30;20048;-81
2021/01/12 06:24:14;;;;;;;9.65;5.15;;;7.60;99.90;;;;;;4722960;30;20043;-81
2021/01/12 06:26:41;;;;;;;13.52;6.10;;;7.60;99.90;;;;;;4719182;30;20029;-82
2021/01/12 06:29:10;;;;;;;10.73;5.30;;;7.50;99.90;;;;;;4707663;30;20119;-81
2021/01/12 06:31:48;;;;;;;11.85;4.95;;;7.50;99.90;;;;;;4714778;30;20056;-82
2021/01/12 06:34:19;;;;;;;10.82;4.82;;;7.50;99.90;;;;;;4714652;30;20041;-81
2021/01/12 06:36:53;;;;;;;14.35;5.22;;;7.50;99.90;;;;;;4722017;30;20033;-83
2021/01/12 06:39:28;;;;;;;12.55;5.03;;;7.60;99.90;;;;;;4724057;30;20541;-82
2021/01/12 06:41:54;;;;;;;18.83;6.43;;;7.60;99.90;;;;;;4726581;30;20044;-82
2021/01/12 06:44:23;;;;;;;15.20;5.85;;;7.80;99.90;;;;;;4722284;30;20040;-81
2021/01/12 06:46:54;;;;;;;11.98;6.15;;;7.80;99.90;;;;;;4724771;30;20029;-79
2021/01/12 06:49:27;;;;;;;16.65;7.32;;;7.90;99.90;;;;;;4721200;30;20029;-80
2021/01/12 06:52:04;;;;;;;18.13;6.60;;;8.00;99.90;;;;;;4722317;30;20033;-81
2021/01/12 06:54:37;;;;;;;15.57;5.57;;;8.00;99.90;;;;;;4706339;30;20565;-82
2021/01/12 06:57:05;;;;;;;;;;;8.10;99.90;;;;;;4723257;30;20033;-82
2021/01/12 06:59:36;;;;;;;19.98;10.18;;;8.10;99.90;;;;;;4719027;30;20443;-83
2021/01/12 07:02:25;;;;;;;17.05;8.48;;;8.20;99.90;;;;;;4722161;30;20045;-83
2021/01/12 07:05:06;;;;;;;26.67;8.15;;;8.20;99.90;;;;;;4723081;30;20064;-81
2021/01/12 07:07:42;;;;;;;16.38;7.53;;;8.30;99.90;;;;;;4747641;30;20059;-81
2021/01/12 07:10:11;;;;;;;9.52;4.55;;;8.30;99.90;;;;;;4724478;30;20036;-82
2021/01/12 07:12:38;;;;;;;16.48;5.35;;;8.30;99.90;;;;;;4726018;30;20186;-82
2021/01/12 07:15:10;;;;;;;11.23;5.20;;;8.30;99.90;;;;;;4731759;30;20057;-83
2021/01/12 07:17:45;;;;;;;12.20;4.60;;;8.30;99.90;;;;;;4737465;30;20116;-82
2021/01/12 07:20:15;;;;;;;15.07;6.13;;;8.30;99.90;;;;;;4730810;30;20040;-83
2021/01/12 07:23:03;;;;;;;9.23;5.32;;;8.30;99.90;;;;;;4730340;30;20116;-83
2021/01/12 07:25:41;;;;;;;18.38;6.45;;;8.30;99.90;;;;;;4729486;30;20037;-83
2021/01/12 07:28:09;;;;;;;10.88;5.47;;;8.30;99.90;;;;;;4740682;30;20032;-83
2021/01/12 07:30:41;;;;;;;33.25;7.63;;;8.30;99.90;;;;;;4748937;30;20056;-82
2021/01/12 07:33:09;;;;;;;10.73;5.78;;;8.20;99.90;;;;;;4748757;30;20040;-83
2021/01/12 07:35:36;;;;;;;13.43;6.18;;;8.30;99.90;;;;;;4734076;30;20098;-83
2021/01/12 07:38:03;;;;;;;10.73;5.03;;;8.20;99.90;;;;;;4735407;30;20025;-83
2021/01/12 07:40:30;;;;;;;14.00;5.97;;;8.30;99.90;;;;;;4733905;30;20041;-82
2021/01/12 07:42:58;;;;;;;11.88;6.18;;;8.30;99.90;;;;;;4735059;30;20095;-80
2021/01/12 07:45:31;;;;;;;10.48;5.65;;;8.30;99.90;;;;;;4733606;30;20028;-82
2021/01/12 07:47:59;;;;;;;16.90;6.13;;;8.30;99.90;;;;;;4736227;30;20512;-84
2021/01/12 07:50:27;;;;;;;10.52;5.97;;;8.40;99.90;;;;;;4736944;30;20052;-83
2021/01/12 07:52:54;;;;;;;10.95;5.70;;;8.40;99.90;;;;;;4742344;30;20451;-79
2021/01/12 07:55:20;;;;;;;11.43;6.03;;;8.40;99.90;;;;;;4723059;30;20048;-81
2021/01/12 07:57:50;;;;;;;12.85;6.13;;;8.40;99.90;;;;;;4725300;30;20068;-82
2021/01/12 08:00:18;;;;;;;13.07;5.53;;;8.50;99.90;;;;;;4727857;30;20044;-82
2021/01/12 08:02:52;;;;;;;11.30;5.90;;;8.50;99.90;;;;;;4722139;30;20048;-81
2021/01/12 08:05:25;;;;;;;9.77;6.30;;;8.50;99.90;;;;;;4726248;30;20842;-81
2021/01/12 08:08:06;;;;;;;10.98;5.95;;;8.50;99.90;;;;;;4723152;30;20487;-81
2021/01/12 08:10:36;;;;;;;38.05;20.13;;;8.60;99.90;;;;;;4729529;30;20493;-82
2021/01/12 08:13:13;;;;;;;35.63;19.67;;;8.70;99.90;;;;;;4723485;30;20037;-83
2021/01/12 08:15:44;;;;;;;27.27;18.15;;;8.80;99.90;;;;;;4726006;30;20064;-83
2021/01/12 08:18:19;;;;;;;15.98;8.02;;;9.00;99.90;;;;;;4727337;30;20425;-82
2021/01/12 08:20:45;;;;;;;23.65;13.13;;;9.00;99.90;;;;;;4723967;30;20091;-83
2021/01/12 08:23:18;;;;;;;14.15;9.45;;;9.10;99.90;;;;;;4726685;30;20045;-86
2021/01/12 08:25:45;;;;;;;15.80;7.35;;;9.20;99.90;;;;;;4727991;30;20107;-84
2021/01/12 08:28:11;;;;;;;12.77;7.05;;;9.30;99.90;;;;;;4723869;30;20106;-89
2021/01/12 08:30:39;;;;;;;11.05;5.18;;;9.30;99.90;;;;;;4710421;30;20135;-81
2021/01/12 08:33:31;;;;;;;9.32;4.63;;;9.40;99.90;;;;;;4725402;30;20032;-80
2021/01/12 08:36:01;;;;;;;8.23;5.57;;;9.40;99.90;;;;;;4709141;30;20043;-83
2021/01/12 08:38:29;;;;;;;10.07;5.43;;;9.40;99.90;;;;;;4724215;30;20044;-85
2021/01/12 08:40:56;;;;;;;9.65;5.00;;;9.40;99.90;;;;;;4728038;30;20037;-85
2021/01/12 08:43:32;;;;;;;9.93;5.10;;;9.50;99.90;;;;;;4725149;30;20045;-86
2021/01/12 08:45:59;;;;;;;10.02;5.50;;;9.50;99.90;;;;;;4730524;30;20045;-87
2021/01/12 08:48:26;;;;;;;5.93;3.97;;;9.60;99.90;;;;;;4723032;30;20044;-84
2021/01/12 08:50:52;;;;;;;9.27;4.82;;;9.60;99.90;;;;;;4728037;30;20449;-85
2021/01/12 08:53:25;;;;;;;9.00;4.90;;;9.60;99.90;;;;;;4726052;30;20051;-85
2021/01/12 08:55:51;;;;;;;8.23;4.20;;;9.70;99.90;;;;;;4722022;30;20111;-85
2021/01/12 08:58:18;;;;;;;9.05;4.68;;;9.80;99.90;;;;;;4724421;30;20033;-84
2021/01/12 09:00:44;;;;;;;13.55;6.28;;;9.90;99.90;;;;;;4744775;30;20087;-85
2021/01/12 09:03:13;;;;;;;6.13;3.53;;;10.00;99.90;;;;;;4724178;30;20077;-84
2021/01/12 09:05:42;;;;;;;5.68;4.22;;;10.10;99.90;;;;;;4710782;30;20037;-85
2021/01/12 09:08:12;;;;;;;11.60;6.40;;;10.40;99.90;;;;;;4722817;30;20024;-86
2021/01/12 09:10:40;;;;;;;12.50;7.30;;;10.60;99.90;;;;;;4729010;30;20036;-86
2021/01/12 09:13:07;;;;;;;12.60;6.43;;;10.70;99.90;;;;;;4722403;30;20113;-86
2021/01/12 09:15:35;;;;;;;15.75;8.15;;;10.70;99.90;;;;;;4712461;30;20071;-86
2021/01/12 09:18:23;;;;;;;8.07;3.67;;;10.70;99.90;;;;;;4722441;30;20046;-85
2021/01/12 09:21:08;;;;;;;7.55;4.22;;;10.80;99.90;;;;;;4730614;30;20075;-85
2021/01/12 09:23:37;;;;;;;9.70;6.82;;;10.70;99.90;;;;;;4745567;30;20055;-86
2021/01/12 09:26:04;;;;;;;10.50;5.45;;;10.70;99.90;;;;;;4726927;30;20112;-86
2021/01/12 09:28:35;;;;;;;12.25;5.75;;;10.70;99.90;;;;;;4721019;30;20028;-86
2021/01/12 09:31:07;;;;;;;12.45;6.13;;;10.70;99.90;;;;;;4722715;30;20053;-86
2021/01/12 09:33:35;;;;;;;17.65;6.55;;;10.70;99.90;;;;;;4720116;30;20865;-85
2021/01/12 09:36:15;;;;;;;11.18;5.38;;;10.80;99.90;;;;;;4722142;30;20049;-86
2021/01/12 09:38:47;;;;;;;7.47;4.35;;;10.90;99.90;;;;;;4725199;30;20116;-87
2021/01/12 09:41:14;;;;;;;7.78;3.50;;;11.00;99.90;;;;;;4724478;30;20044;-86
2021/01/12 09:43:42;;;;;;;6.68;3.42;;;11.20;99.90;;;;;;4734378;30;20135;-86
2021/01/12 09:46:09;;;;;;;6.97;4.00;;;11.30;99.90;;;;;;4723978;30;20037;-87
2021/01/12 09:48:35;;;;;;;6.97;4.03;;;11.30;99.90;;;;;;4710886;30;20036;-86
2021/01/12 09:51:02;;;;;;;8.50;4.13;;;11.20;99.90;;;;;;4724066;30;20025;-86
2021/01/12 09:53:28;;;;;;;16.70;7.47;;;11.20;99.90;;;;;;4735282;30;20522;-86
2021/01/12 09:55:56;;;;;;;9.15;4.68;;;11.00;99.90;;;;;;4725700;30;20060;-84
2021/01/12 09:58:22;;;;;;;4.22;3.00;;;11.00;99.90;;;;;;4725089;30;20030;-86
2021/01/12 10:00:48;;;;;;;5.15;2.92;;;10.90;99.90;;;;;;4712673;30;20086;-86
2021/01/12 10:03:14;;;;;;;9.80;4.13;;;11.00;99.90;;;;;;4729062;30;20041;-87
2021/01/12 10:05:41;;;;;;;9.45;4.18;;;11.20;99.90;;;;;;4723214;30;20056;-85
2021/01/12 10:08:08;;;;;;;4.68;2.22;;;11.40;99.90;;;;;;4721672;30;20534;-86
2021/01/12 10:10:34;;;;;;;6.25;3.05;;;11.60;99.90;;;;;;4723309;30;20053;-85
2021/01/12 10:13:02;;;;;;;4.38;2.00;;;11.70;99.90;;;;;;4729858;30;20043;-86
2021/01/12 10:15:28;;;;;;;5.80;2.45;;;11.70;99.90;;;;;;4708794;30;20029;-86
2021/01/12 10:17:54;;;;;;;4.45;2.35;;;11.80;99.90;;;;;;4720188;30;20036;-85
2021/01/12 10:20:21;;;;;;;8.45;2.80;;;11.80;99.90;;;;;;4720949;30;20036;-86
2021/01/12 10:22:47;;;;;;;5.60;2.00;;;11.90;99.90;;;;;;4711063;30;20124;-86
2021/01/12 10:25:13;;;;;;;6.07;2.97;;;11.90;99.90;;;;;;4724003;30;20398;-86
2021/01/12 10:27:42;;;;;;;10.88;2.80;;;12.00;99.90;;;;;;4725587;30;20045;-85
2021/01/12 10:30:10;;;;;;;6.38;2.75;;;12.00;99.90;;;;;;4719955;30;20084;-85
2021/01/12 10:32:36;;;;;;;10.00;2.60;;;11.90;99.90;;;;;;4723129;30;20054;-85
2021/01/12 10:35:03;;;;;;;3.55;2.08;;;11.90;99.90;;;;;;4724359;30;20068;-85
2021/01/12 10:37:29;;;;;;;4.15;2.55;;;11.90;99.90;;;;;;4725870;30;20036;-85
2021/01/12 10:39:56;;;;;;;6.60;2.47;;;11.90;99.90;;;;;;4721085;30;20036;-85
2021/01/12 10:42:22;;;;;;;5.22;2.85;;;12.00;99.90;;;;;;4718205;30;20401;-83
2021/01/12 10:44:48;;;;;;;3.38;1.80;;;12.20;99.90;;;;;;4729432;30;20040;-84
2021/01/12 10:47:15;;;;;;;1.88;1.40;;;12.40;99.90;;;;;;4722803;30;20040;-85
2021/01/12 10:49:41;;;;;;;3.75;2.13;;;12.50;99.90;;;;;;4721338;30;20028;-85
2021/01/12 10:52:07;;;;;;;2.97;1.52;;;12.30;99.90;;;;;;4709538;30;20029;-85
2021/01/12 10:54:34;;;;;;;3.28;1.63;;;12.40;99.90;;;;;;4723253;30;20029;-84
2021/01/12 10:57:02;;;;;;;2.03;1.02;;;12.60;99.90;;;;;;4734164;30;20037;-85
2021/01/12 10:59:29;;;;;;;121.60;17.13;;;12.90;99.90;;;;;;4722828;30;20078;-86
2021/01/12 11:02:01;;;;;;;1.95;1.25;;;13.00;99.90;;;;;;4723326;30;20029;-86
2021/01/12 11:04:27;;;;;;;3.83;1.38;;;12.80;99.90;;;;;;4724666;30;20043;-85
2021/01/12 11:06:55;;;;;;;5.07;1.65;;;12.50;99.90;;;;;;4728739;30;20099;-84
2021/01/12 11:09:26;;;;;;;10.40;2.20;;;12.40;99.90;;;;;;4720964;30;20032;-82
2021/01/12 11:11:59;;;;;;;5.38;1.95;;;12.50;99.90;;;;;;4721833;30;20068;-83
2021/01/12 11:14:25;;;;;;;9.68;3.05;;;12.80;99.90;;;;;;4721498;30;20388;-83
2021/01/12 11:16:51;;;;;;;11.52;2.63;;;12.80;99.90;;;;;;4722948;30;20104;-84
2021/01/12 11:19:18;;;;;;;2.10;1.55;;;12.60;99.90;;;;;;4727079;30;20032;-81
2021/01/12 11:21:45;;;;;;;17.42;3.17;;;12.50;99.90;;;;;;4726923;30;20045;-84
2021/01/12 11:24:13;;;;;;;4.75;1.90;;;12.40;99.90;;;;;;4723959;30;20433;-84
2021/01/12 11:26:41;;;;;;;3.58;1.63;;;12.00;99.90;;;;;;4723774;30;20094;-83
2021/01/12 11:29:08;;;;;;;3.22;2.40;;;11.90;99.90;;;;;;4719121;30;20523;-83
2021/01/12 11:31:34;;;;;;;2.88;2.08;;;12.20;99.90;;;;;;4723224;30;20053;-83
2021/01/12 11:34:00;;;;;;;3.67;1.60;;;12.50;99.90;;;;;;4720844;30;20119;-83
2021/01/12 11:36:34;;;;;;;11.77;3.00;;;12.50;99.90;;;;;;4721111;30;20104;-83
2021/01/12 11:39:00;;;;;;;;;;;12.30;99.90;;;;;;4721251;30;20482;-83
2021/01/12 11:41:26;;;;;;;5.03;2.50;;;12.10;99.90;;;;;;4708449;30;20284;-84
2021/01/12 11:43:53;;;;;;;3.42;2.55;;;11.90;99.90;;;;;;4720201;30;20091;-83
2021/01/12 11:46:27;;;;;;;4.55;2.47;;;11.70;99.90;;;;;;4725780;30;20439;-83
2021/01/12 11:48:55;;;;;;;4.30;2.10;;;11.60;99.90;;;;;;4719718;30;20037;-83
2021/01/12 11:51:21;;;;;;;5.78;2.38;;;11.80;99.90;;;;;;4709155;30;20032;-83
2021/01/12 11:53:51;;;;;;;5.95;1.65;;;11.90;99.90;;;;;;4727253;30;20041;-83
2021/01/12 11:56:18;;;;;;;4.85;1.80;;;12.00;99.90;;;;;;4723955;30;20033;-83
2021/01/12 11:58:44;;;;;;;3.00;2.10;;;12.30;99.90;;;;;;4725076;30;20054;-83
2021/01/12 12:01:11;;;;;;;4.47;2.05;;;12.30;99.90;;;;;;4720012;30;20103;-84
2021/01/12 12:03:39;;;;;;;10.13;2.22;;;12.10;99.90;;;;;;4725200;30;20072;-84
2021/01/12 12:06:05;;;;;;;2.92;1.88;;;12.10;99.90;;;;;;4722446;30;20041;-83
2021/01/12 12:08:31;;;;;;;4.60;2.75;;;12.00;99.90;;;;;;4715778;30;20040;-83
2021/01/12 12:11:02;;;;;;;15.00;3.40;;;12.00;99.90;;;;;;4722032;30;20091;-83
2021/01/12 12:13:28;;;;;;;3.08;2.13;;;12.10;99.90;;;;;;4728282;30;20118;-84
2021/01/12 12:15:55;;;;;;;1.90;1.60;;;12.00;99.90;;;;;;4708596;30;20094;-80
2021/01/12 12:18:21;;;;;;;16.95;3.17;;;11.80;99.90;;;;;;4711287;30;20028;-79
2021/01/12 12:20:48;;;;;;;2.85;1.90;;;11.70;99.90;;;;;;4725844;30;20029;-80
2021/01/12 12:23:14;;;;;;;7.28;1.85;;;11.90;99.90;;;;;;4724723;30;20103;-79
2021/01/12 12:25:40;;;;;;;3.42;1.30;;;11.80;99.90;;;;;;4725012;30;20040;-79
2021/01/12 12:28:06;;;;;;;2.72;1.30;;;11.70;99.90;;;;;;4721834;30;20056;-80
2021/01/12 12:30:32;;;;;;;3.22;1.38;;;11.80;99.90;;;;;;4722107;30;20144;-79
2021/01/12 12:32:58;;;;;;;22.55;4.07;;;12.00;99.90;;;;;;4722755;30;20140;-79
2021/01/12 12:35:24;;;;;;;6.15;2.22;;;12.00;99.90;;;;;;4723661;30;20024;-80
2021/01/12 12:37:50;;;;;;;2.55;0.93;;;12.30;99.90;;;;;;4724182;30;20036;-79
2021/01/12 12:40:18;;;;;;;3.88;1.17;;;12.10;99.90;;;;;;4723502;30;20028;-80
2021/01/12 12:42:44;;;;;;;1.73;1.38;;;12.00;99.90;;;;;;4726722;30;20056;-80
2021/01/12 12:45:10;;;;;;;2.40;1.50;;;12.20;99.90;;;;;;4721867;30;20037;-81
2021/01/12 12:47:36;;;;;;;2.72;0.90;;;12.20;99.90;;;;;;4723670;30;20037;-80
2021/01/12 12:50:03;;;;;;;13.60;3.05;;;12.40;99.90;;;;;;4726220;30;20395;-80
2021/01/12 12:52:30;;;;;;;5.40;2.28;;;12.40;99.90;;;;;;4725356;30;20039;-79
2021/01/12 12:54:56;;;;;;;3.60;1.92;;;12.60;99.90;;;;;;4727014;30;20033;-81